Time;durP1;ratioP1;P1;durP2;ratioP2;P2;SDS_P1;SDS_P2;PMS_P1;PMS_P2;Temp;Humidity;BMP_temperature;BMP_pressure;BME280_temperature;BME280_humidity;BME280_pressure;Samples;Min_cycle;Max_cycle;Signal;HPM_P1;HPM_P2
2023/01/28 00:00:50;;;;;;;5.50;3.73;;;;;;;;;;5075699;28;20245;-94
2023/01/28 00:03:17;;;;;;;3.80;3.47;;;;;;;;;;5075328;28;20205;-93
2023/01/28 00:05:44;;;;;;;3.37;3.17;;;;;;;;;;5075165;28;20855;-94
2023/01/28 00:08:13;;;;;;;3.83;3.53;;;;;;;;;;5075497;28;20285;-95
2023/01/28 00:10:41;;;;;;;3.77;3.47;;;;;;;;;;5075327;28;20241;-93
2023/01/28 00:13:09;;;;;;;4.23;3.80;;;;;;;;;;5078610;28;20213;-92
2023/01/28 00:15:36;;;;;;;3.87;3.57;;;;;;;;;;5095131;28;20232;-93
2023/01/28 00:18:05;;;;;;;3.83;3.43;;;;;;;;;;5076331;28;20209;-93
2023/01/28 00:20:34;;;;;;;3.73;3.43;;;;;;;;;;5074581;28;20244;-93
2023/01/28 00:23:01;;;;;;;4.50;4.10;;;;;;;;;;5075572;28;20225;-92
2023/01/28 00:25:28;;;;;;;3.87;3.57;;;;;;;;;;5074993;28;20635;-93
2023/01/28 00:27:55;;;;;;;4.10;3.77;;;;;;;;;;5075473;28;20220;-92
2023/01/28 00:30:22;;;;;;;4.03;3.67;;;;;;;;;;5074699;28;20705;-92
2023/01/28 00:32:49;;;;;;;4.40;4.00;;;;;;;;;;5074919;28;20209;-93
2023/01/28 00:35:18;;;;;;;4.00;3.70;;;;;;;;;;5074420;28;20233;-93
2023/01/28 00:37:46;;;;;;;4.57;3.60;;;;;;;;;;5075467;28;20220;-93
2023/01/28 00:40:13;;;;;;;4.23;3.93;;;;;;;;;;5074357;28;20229;-93
2023/01/28 00:42:40;;;;;;;4.50;4.10;;;;;;;;;;5075272;28;20250;-92
2023/01/28 00:45:08;;;;;;;4.50;4.10;;;;;;;;;;5074369;28;20702;-92
2023/01/28 00:47:35;;;;;;;3.93;3.63;;;;;;;;;;5075109;28;20235;-93
2023/01/28 00:50:02;;;;;;;4.07;3.67;;;;;;;;;;5074411;28;20229;-93
2023/01/28 00:52:31;;;;;;;5.87;4.40;;;;;;;;;;5074400;28;20217;-93
2023/01/28 00:54:58;;;;;;;5.00;4.00;;;;;;;;;;5073858;28;20231;-93
2023/01/28 00:57:25;;;;;;;4.60;4.20;;;;;;;;;;5073971;28;20213;-92
2023/01/28 00:59:52;;;;;;;3.87;3.60;;;;;;;;;;5074537;28;20618;-94
2023/01/28 01:02:19;;;;;;;4.97;4.00;;;;;;;;;;5075172;28;20233;-93
2023/01/28 01:04:53;;;;;;;4.77;4.33;;;;;;;;;;5073891;28;20642;-94
2023/01/28 01:07:21;;;;;;;4.30;3.90;;;;;;;;;;5075007;28;20193;-93
2023/01/28 01:09:50;;;;;;;5.57;4.00;;;;;;;;;;5073925;28;20234;-94
2023/01/28 01:12:17;;;;;;;4.47;4.00;;;;;;;;;;5074758;28;20228;-94
2023/01/28 01:14:44;;;;;;;4.43;4.07;;;;;;;;;;5074137;28;20229;-94
2023/01/28 01:17:11;;;;;;;4.37;3.97;;;;;;;;;;5074645;28;20240;-93
2023/01/28 01:19:38;;;;;;;4.43;4.03;;;;;;;;;;5074310;28;20233;-93
2023/01/28 01:22:05;;;;;;;4.93;4.20;;;;;;;;;;5074813;28;20225;-93
2023/01/28 01:24:32;;;;;;;4.03;3.73;;;;;;;;;;5074129;28;20233;-93
2023/01/28 01:27:01;;;;;;;5.53;3.90;;;;;;;;;;5074786;28;20204;-93
2023/01/28 01:29:28;;;;;;;4.10;3.70;;;;;;;;;;5074303;28;20236;-93
2023/01/28 01:31:55;;;;;;;6.50;4.33;;;;;;;;;;5074606;28;20721;-93
2023/01/28 01:34:22;;;;;;;6.03;3.67;;;;;;;;;;5074741;28;20237;-95
2023/01/28 01:36:49;;;;;;;4.27;3.90;;;;;;;;;;5074957;28;20257;-92
2023/01/28 01:39:16;;;;;;;4.37;3.80;;;;;;;;;;5073993;28;20211;-93
2023/01/28 01:41:44;;;;;;;4.63;3.43;;;;;;;;;;5074717;28;20610;-93
2023/01/28 01:44:35;;;;;;;4.30;3.87;;;;;;;;;;5073801;28;20216;-93
2023/01/28 01:47:03;;;;;;;3.87;3.57;;;;;;;;;;5074695;28;20190;-93
2023/01/28 01:49:30;;;;;;;4.53;4.13;;;;;;;;;;5074663;28;20233;-94
2023/01/28 01:51:59;;;;;;;4.03;3.70;;;;;;;;;;5075035;28;20229;-93
2023/01/28 01:54:29;;;;;;;5.10;3.87;;;;;;;;;;5074101;28;20233;-93
2023/01/28 01:56:56;;;;;;;3.97;3.67;;;;;;;;;;5074522;28;20693;-93
2023/01/28 01:59:26;;;;;;;3.30;3.10;;;;;;;;;;5074257;28;20236;-93
2023/01/28 02:01:54;;;;;;;3.90;3.60;;;;;;;;;;5074504;28;20720;-94
2023/01/28 02:04:24;;;;;;;3.50;3.20;;;;;;;;;;5080144;28;20212;-93
2023/01/28 02:06:51;;;;;;;3.90;3.60;;;;;;;;;;5073041;28;20216;-93
2023/01/28 02:09:25;;;;;;;3.43;3.23;;;;;;;;;;5067771;28;20205;-93
2023/01/28 02:11:53;;;;;;;3.87;3.57;;;;;;;;;;5078597;28;20268;-93
2023/01/28 02:14:20;;;;;;;4.53;3.20;;;;;;;;;;5077164;28;20209;-94
2023/01/28 02:16:47;;;;;;;4.23;3.83;;;;;;;;;;5078102;28;20240;-94
2023/01/28 02:19:15;;;;;;;3.97;3.63;;;;;;;;;;5077465;28;20209;-94
2023/01/28 02:22:01;;;;;;;3.90;3.57;;;;;;;;;;5078219;28;20229;-94
2023/01/28 02:24:43;;;;;;;4.00;3.33;;;;;;;;;;5077842;28;20766;-93
2023/01/28 02:27:15;;;;;;;3.63;3.30;;;;;;;;;;5077823;28;20181;-94
2023/01/28 02:29:59;;;;;;;3.70;3.40;;;;;;;;;;5077501;28;20229;-94
2023/01/28 02:32:31;;;;;;;3.80;3.50;;;;;;;;;;5058671;22;20250;-89
2023/01/28 02:35:02;;;;;;;3.90;3.60;;;;;;;;;;5020128;28;20236;-89
2023/01/28 02:37:35;;;;;;;3.93;3.60;;;;;;;;;;5012187;28;20273;-89
2023/01/28 02:40:03;;;;;;;4.40;3.97;;;;;;;;;;5011932;28;20258;-89
2023/01/28 02:42:32;;;;;;;4.13;3.30;;;;;;;;;;5012304;28;20220;-89
2023/01/28 02:45:01;;;;;;;4.10;3.70;;;;;;;;;;5012053;28;20235;-88
2023/01/28 02:50:13;;;;;;;4.30;3.90;;;;;;;;;;5011774;28;20238;-89
2023/01/28 02:55:45;;;;;;;4.37;4.07;;;;;;;;;;5011397;28;20238;-88
2023/01/28 02:58:17;;;;;;;3.90;3.60;;;;;;;;;;5011852;28;20216;-89
2023/01/28 03:00:50;;;;;;;3.57;3.37;;;;;;;;;;5011757;28;20284;-89
2023/01/28 03:03:21;;;;;;;4.33;3.90;;;;;;;;;;5011908;28;20181;-89
2023/01/28 03:06:04;;;;;;;3.93;3.50;;;;;;;;;;5011515;28;20367;-88
2023/01/28 03:38:57;;;;;;;3.73;3.43;;;;;;;;;;5011488;28;20192;-88
2023/01/28 03:41:25;;;;;;;4.30;3.83;;;;;;;;;;5011221;28;20223;-89
2023/01/28 03:43:53;;;;;;;3.50;3.30;;;;;;;;;;5011414;28;20207;-89
2023/01/28 03:46:20;;;;;;;3.63;3.33;;;;;;;;;;5010826;28;20318;-88
2023/01/28 03:48:49;;;;;;;5.07;3.60;;;;;;;;;;5011434;28;20203;-88
2023/01/28 03:51:16;;;;;;;4.87;3.80;;;;;;;;;;5010499;28;20239;-89
2023/01/28 03:53:43;;;;;;;3.97;3.67;;;;;;;;;;5010986;28;20216;-88
2023/01/28 03:56:17;;;;;;;3.80;3.50;;;;;;;;;;5010539;28;20235;-89
2023/01/28 03:58:52;;;;;;;3.83;3.53;;;;;;;;;;5011046;28;20663;-88
2023/01/28 04:01:19;;;;;;;3.80;3.50;;;;;;;;;;5015791;28;20619;-88
2023/01/28 04:03:46;;;;;;;5.03;3.80;;;;;;;;;;5010940;28;20203;-89
2023/01/28 04:06:16;;;;;;;4.37;3.90;;;;;;;;;;5010245;28;20247;-88
2023/01/28 04:08:51;;;;;;;3.87;3.60;;;;;;;;;;5010807;28;20636;-89
2023/01/28 04:11:20;;;;;;;3.80;3.50;;;;;;;;;;5009949;28;20246;-89
2023/01/28 04:13:47;;;;;;;4.10;3.70;;;;;;;;;;5010650;28;20208;-89
2023/01/28 04:16:15;;;;;;;5.13;3.90;;;;;;;;;;5010303;28;20231;-88
2023/01/28 04:18:43;;;;;;;3.70;3.40;;;;;;;;;;5010846;28;20571;-89
2023/01/28 04:21:10;;;;;;;5.03;3.93;;;;;;;;;;5009959;28;20243;-89
2023/01/28 04:23:38;;;;;;;4.20;3.90;;;;;;;;;;5010251;28;20199;-89
2023/01/28 04:26:05;;;;;;;5.20;4.00;;;;;;;;;;5010124;28;20231;-89
2023/01/28 04:28:32;;;;;;;5.37;4.10;;;;;;;;;;5010853;28;20220;-88
2023/01/28 04:30:59;;;;;;;4.27;3.83;;;;;;;;;;5009722;28;20246;-88
2023/01/28 04:33:26;;;;;;;4.00;3.70;;;;;;;;;;5010291;28;20219;-89
2023/01/28 04:35:53;;;;;;;4.20;3.90;;;;;;;;;;5009983;28;20239;-88
2023/01/28 04:38:21;;;;;;;5.23;4.13;;;;;;;;;;5010550;28;20211;-89
2023/01/28 04:40:51;;;;;;;5.10;4.40;;;;;;;;;;5009934;28;20706;-89
2023/01/28 04:43:18;;;;;;;4.40;4.00;;;;;;;;;;5010440;28;20207;-88
2023/01/28 04:45:46;;;;;;;4.60;4.20;;;;;;;;;;5010607;28;20238;-88
2023/01/28 04:48:13;;;;;;;4.60;4.20;;;;;;;;;;5012936;28;20203;-89
2023/01/28 04:50:40;;;;;;;4.70;4.30;;;;;;;;;;5009890;28;20246;-88
2023/01/28 04:53:07;;;;;;;5.07;4.57;;;;;;;;;;5010439;28;20352;-89
2023/01/28 04:55:34;;;;;;;6.47;4.40;;;;;;;;;;5009901;28;20247;-89
2023/01/28 04:58:03;;;;;;;5.43;4.93;;;;;;;;;;5010430;28;20239;-89
2023/01/28 05:00:30;;;;;;;6.43;4.67;;;;;;;;;;5009430;28;20645;-89
2023/01/28 05:02:57;;;;;;;5.80;4.20;;;;;;;;;;5011057;28;20231;-88
2023/01/28 05:05:24;;;;;;;5.07;4.57;;;;;;;;;;5010002;28;20235;-89
2023/01/28 05:07:52;;;;;;;5.03;4.57;;;;;;;;;;5012591;28;20203;-89
2023/01/28 05:10:19;;;;;;;5.33;4.63;;;;;;;;;;5012693;28;20906;-89
2023/01/28 05:12:47;;;;;;;4.50;4.10;;;;;;;;;;5010037;28;20219;-89
2023/01/28 05:15:16;;;;;;;4.50;4.17;;;;;;;;;;5010711;28;20319;-89
2023/01/28 05:17:43;;;;;;;4.60;4.20;;;;;;;;;;5010581;28;20238;-89
2023/01/28 05:20:11;;;;;;;4.90;4.50;;;;;;;;;;5009499;28;20231;-89
2023/01/28 05:22:38;;;;;;;4.70;4.30;;;;;;;;;;5010169;28;20231;-88
2023/01/28 05:25:05;;;;;;;5.23;4.53;;;;;;;;;;5009495;28;20258;-89
2023/01/28 05:27:32;;;;;;;4.93;4.53;;;;;;;;;;5010120;28;20239;-89
2023/01/28 05:29:59;;;;;;;4.77;4.30;;;;;;;;;;5009402;28;20239;-88
2023/01/28 05:32:28;;;;;;;4.90;4.20;;;;;;;;;;5009483;28;20235;-88
2023/01/28 05:34:55;;;;;;;4.63;4.23;;;;;;;;;;5009320;28;20242;-88
2023/01/28 05:37:22;;;;;;;4.47;4.07;;;;;;;;;;5009728;28;20236;-89
2023/01/28 05:39:49;;;;;;;5.17;4.07;;;;;;;;;;5009663;28;20239;-90
2023/01/28 05:42:17;;;;;;;5.10;4.33;;;;;;;;;;5009272;28;20234;-89
2023/01/28 05:44:44;;;;;;;4.90;4.50;;;;;;;;;;5009431;28;20231;-89
2023/01/28 05:47:11;;;;;;;5.17;4.60;;;;;;;;;;5009563;28;20199;-89
2023/01/28 05:49:40;;;;;;;5.13;4.67;;;;;;;;;;5009052;28;20231;-88
2023/01/28 05:52:07;;;;;;;5.17;4.63;;;;;;;;;;5009509;28;20231;-88
2023/01/28 05:54:34;;;;;;;6.47;4.43;;;;;;;;;;5008861;28;20238;-89
2023/01/28 05:57:01;;;;;;;4.77;4.27;;;;;;;;;;5009346;28;20231;-89
2023/01/28 05:59:28;;;;;;;5.03;4.53;;;;;;;;;;5008985;28;20231;-89
2023/01/28 06:01:55;;;;;;;4.93;4.50;;;;;;;;;;5009408;28;20223;-88
2023/01/28 06:04:22;;;;;;;5.33;4.67;;;;;;;;;;5008506;28;20314;-88
2023/01/28 06:06:50;;;;;;;5.07;4.67;;;;;;;;;;5009189;28;20671;-88
2023/01/28 06:09:17;;;;;;;6.20;5.23;;;;;;;;;;5008624;28;20207;-89
2023/01/28 06:11:45;;;;;;;5.10;4.70;;;;;;;;;;5009034;28;20679;-88
2023/01/28 06:14:12;;;;;;;4.60;4.20;;;;;;;;;;5008973;28;20204;-90
2023/01/28 06:16:39;;;;;;;4.37;3.97;;;;;;;;;;5009323;28;20238;-89
2023/01/28 06:19:06;;;;;;;5.30;4.80;;;;;;;;;;5009121;28;20233;-90
2023/01/28 06:21:34;;;;;;;4.97;4.47;;;;;;;;;;5009397;28;20232;-90
2023/01/28 06:24:02;;;;;;;5.03;4.53;;;;;;;;;;5009154;28;20211;-90
2023/01/28 06:26:29;;;;;;;5.77;4.83;;;;;;;;;;5009242;28;20214;-90
2023/01/28 06:28:56;;;;;;;4.67;4.27;;;;;;;;;;5009656;28;20207;-89
2023/01/28 06:31:23;;;;;;;4.77;4.33;;;;;;;;;;5008534;28;20239;-89
2023/01/28 06:33:50;;;;;;;5.63;4.50;;;;;;;;;;5008925;28;20218;-89
2023/01/28 06:36:17;;;;;;;4.70;4.30;;;;;;;;;;5008539;28;20239;-89
2023/01/28 06:38:44;;;;;;;4.40;4.00;;;;;;;;;;5009434;28;20238;-89
2023/01/28 06:41:13;;;;;;;4.70;4.27;;;;;;;;;;5008184;28;20309;-89
2023/01/28 06:43:40;;;;;;;4.20;3.80;;;;;;;;;;5008920;28;20215;-90
2023/01/28 06:46:07;;;;;;;4.77;4.33;;;;;;;;;;5008276;28;20238;-90
2023/01/28 06:48:34;;;;;;;4.70;4.03;;;;;;;;;;5008982;28;20212;-89
2023/01/28 06:51:01;;;;;;;5.00;4.20;;;;;;;;;;5008121;28;20703;-90
2023/01/28 06:53:28;;;;;;;3.60;3.40;;;;;;;;;;5008871;28;20208;-89
2023/01/28 06:55:55;;;;;;;4.57;4.00;;;;;;;;;;5010260;28;20242;-90
2023/01/28 06:58:23;;;;;;;5.53;4.53;;;;;;;;;;5012288;28;20597;-90
2023/01/28 07:00:50;;;;;;;4.13;3.80;;;;;;;;;;5012855;28;20231;-89
2023/01/28 07:03:17;;;;;;;4.50;4.10;;;;;;;;;;5015912;28;20234;-88
2023/01/28 07:05:44;;;;;;;6.23;4.60;;;;;;;;;;5018221;28;20243;-91
2023/01/28 07:08:11;;;;;;;7.20;4.30;;;;;;;;;;5050537;28;20260;-90
2023/01/28 07:10:39;;;;;;;4.27;3.97;;;;;;;;;;5017298;28;20231;-89
2023/01/28 07:13:06;;;;;;;4.00;3.70;;;;;;;;;;5012478;28;20235;-90
2023/01/28 07:15:34;;;;;;;4.20;3.80;;;;;;;;;;5011529;28;20243;-89
2023/01/28 07:18:01;;;;;;;4.87;4.37;;;;;;;;;;5011716;28;20223;-89
2023/01/28 07:20:28;;;;;;;4.50;4.10;;;;;;;;;;5011946;28;20239;-89
2023/01/28 07:22:55;;;;;;;8.03;4.10;;;;;;;;;;5039806;28;20225;-88
2023/01/28 07:25:23;;;;;;;4.20;3.90;;;;;;;;;;5094651;28;20716;-89
2023/01/28 07:27:51;;;;;;;4.33;3.93;;;;;;;;;;5094786;28;20257;-87
2023/01/28 07:30:19;;;;;;;5.13;4.23;;;;;;;;;;5065576;28;20231;-87
2023/01/28 07:32:53;;;;;;;4.20;3.80;;;;;;;;;;5011339;28;20239;-87
2023/01/28 07:35:20;;;;;;;5.97;4.90;;;;;;;;;;5010568;28;20235;-88
2023/01/28 07:37:51;;;;;;;5.00;4.40;;;;;;;;;;5011030;28;20231;-88
2023/01/28 07:40:18;;;;;;;4.97;4.57;;;;;;;;;;5010653;28;20231;-87
2023/01/28 07:42:45;;;;;;;6.87;5.10;;;;;;;;;;5011158;28;20230;-87
2023/01/28 07:45:12;;;;;;;5.23;4.77;;;;;;;;;;5010578;28;20231;-88
2023/01/28 07:47:39;;;;;;;6.13;4.30;;;;;;;;;;5011127;28;20238;-87
2023/01/28 07:50:08;;;;;;;7.13;4.77;;;;;;;;;;4991505;28;20236;-87
2023/01/28 07:52:43;;;;;;;4.30;3.90;;;;;;;;;;4991351;28;20242;-88
2023/01/28 07:55:10;;;;;;;6.60;4.60;;;;;;;;;;4991464;28;20314;-88
2023/01/28 07:57:37;;;;;;;6.03;4.50;;;;;;;;;;4991533;28;20220;-88
2023/01/28 08:00:04;;;;;;;4.43;4.03;;;;;;;;;;4990852;28;20608;-87
2023/01/28 08:02:31;;;;;;;5.20;4.43;;;;;;;;;;4991155;28;20228;-87
2023/01/28 08:05:00;;;;;;;4.10;3.80;;;;;;;;;;4990946;28;20232;-87
2023/01/28 08:07:29;;;;;;;4.60;4.20;;;;;;;;;;4991949;28;20212;-88
2023/01/28 08:09:56;;;;;;;4.47;4.07;;;;;;;;;;4991287;28;20236;-88
2023/01/28 08:12:23;;;;;;;5.10;4.40;;;;;;;;;;4992893;28;20356;-87
2023/01/28 08:14:50;;;;;;;4.40;4.00;;;;;;;;;;5003842;28;20614;-87
2023/01/28 08:17:17;;;;;;;4.83;4.40;;;;;;;;;;4990763;28;20623;-88
2023/01/28 08:19:44;;;;;;;4.60;4.20;;;;;;;;;;4990828;28;20288;-88
2023/01/28 08:22:11;;;;;;;6.77;4.07;;;;;;;;;;4990610;28;20227;-88
2023/01/28 08:24:40;;;;;;;4.43;4.03;;;;;;;;;;4990596;28;20232;-89
2023/01/28 08:27:07;;;;;;;5.20;4.43;;;;;;;;;;4992276;28;20680;-89
2023/01/28 08:29:34;;;;;;;4.90;4.50;;;;;;;;;;4990827;28;20278;-89
2023/01/28 08:32:01;;;;;;;4.07;3.77;;;;;;;;;;4991375;28;20595;-87
2023/01/28 08:34:28;;;;;;;4.67;4.23;;;;;;;;;;4990882;28;20239;-88
2023/01/28 08:36:55;;;;;;;4.40;3.97;;;;;;;;;;4991050;28;20196;-87
2023/01/28 08:39:22;;;;;;;4.47;4.07;;;;;;;;;;4990707;28;20240;-87
2023/01/28 08:41:50;;;;;;;8.23;4.33;;;;;;;;;;4991765;28;20722;-89
2023/01/28 08:44:18;;;;;;;4.63;3.83;;;;;;;;;;4991547;28;20203;-90
2023/01/28 08:46:45;;;;;;;4.83;4.10;;;;;;;;;;4991594;28;20208;-90
2023/01/28 08:49:12;;;;;;;6.57;4.37;;;;;;;;;;4991068;28;20211;-90
2023/01/28 08:51:39;;;;;;;4.37;3.97;;;;;;;;;;4992049;28;20236;-89
2023/01/28 08:54:06;;;;;;;4.67;4.27;;;;;;;;;;4991618;28;20230;-88
2023/01/28 08:56:33;;;;;;;4.27;3.87;;;;;;;;;;4991688;28;20213;-90
2023/01/28 08:59:01;;;;;;;4.40;4.00;;;;;;;;;;5001026;28;20227;-89
2023/01/28 09:01:28;;;;;;;4.30;3.90;;;;;;;;;;4997737;28;20252;-90
2023/01/28 09:03:56;;;;;;;4.37;3.77;;;;;;;;;;4992391;28;20204;-90
2023/01/28 09:06:23;;;;;;;4.57;3.73;;;;;;;;;;4991420;28;20701;-89
2023/01/28 09:08:50;;;;;;;4.00;3.70;;;;;;;;;;4991227;28;20204;-88
2023/01/28 09:11:17;;;;;;;4.60;4.00;;;;;;;;;;5009165;28;20246;-87
2023/01/28 09:13:44;;;;;;;4.13;3.83;;;;;;;;;;5009725;28;20207;-89
2023/01/28 09:16:12;;;;;;;4.73;4.20;;;;;;;;;;5008987;28;20239;-88
2023/01/28 09:18:39;;;;;;;4.27;3.87;;;;;;;;;;5008450;28;20231;-88
2023/01/28 09:21:07;;;;;;;4.43;4.13;;;;;;;;;;5009054;28;20251;-88
2023/01/28 09:23:35;;;;;;;4.53;4.07;;;;;;;;;;5009869;28;20654;-88
2023/01/28 09:26:03;;;;;;;4.93;4.33;;;;;;;;;;5009482;28;20243;-88
2023/01/28 09:28:30;;;;;;;5.13;4.20;;;;;;;;;;5010272;28;20192;-88
2023/01/28 09:31:01;;;;;;;5.83;4.50;;;;;;;;;;5009467;28;20248;-88
2023/01/28 09:33:30;;;;;;;4.03;3.70;;;;;;;;;;5009480;28;20211;-88
2023/01/28 09:35:57;;;;;;;4.07;3.77;;;;;;;;;;5009183;28;20239;-88
2023/01/28 09:38:24;;;;;;;3.83;3.53;;;;;;;;;;5009479;28;20231;-88
2023/01/28 09:40:51;;;;;;;4.73;4.23;;;;;;;;;;5009110;28;20246;-88
2023/01/28 09:43:32;;;;;;;3.80;3.50;;;;;;;;;;5009611;28;20216;-88
2023/01/28 09:46:00;;;;;;;5.30;3.70;;;;;;;;;;5009254;28;20242;-88
2023/01/28 09:48:32;;;;;;;3.77;3.40;;;;;;;;;;5010174;28;20560;-88
2023/01/28 09:51:00;;;;;;;4.53;3.50;;;;;;;;;;5009140;28;20284;-89
2023/01/28 09:53:29;;;;;;;3.67;3.37;;;;;;;;;;5009482;28;20556;-89
2023/01/28 09:55:58;;;;;;;4.20;3.80;;;;;;;;;;5009438;28;20242;-89
2023/01/28 09:58:25;;;;;;;5.37;3.90;;;;;;;;;;5009725;28;20230;-87
2023/01/28 10:00:55;;;;;;;6.10;3.60;;;;;;;;;;5014828;28;20239;-89
2023/01/28 10:03:41;;;;;;;4.00;3.70;;;;;;;;;;5011153;28;20219;-88
2023/01/28 10:06:17;;;;;;;3.60;3.30;;;;;;;;;;5011843;28;20280;-88
2023/01/28 10:08:55;;;;;;;3.00;2.80;;;;;;;;;;5011274;28;20196;-89
2023/01/28 10:11:28;;;;;;;4.50;3.50;;;;;;;;;;5010594;28;20662;-90
2023/01/28 10:14:00;;;;;;;4.53;3.90;;;;;;;;;;5011526;28;20210;-89
2023/01/28 10:16:30;;;;;;;4.43;4.03;;;;;;;;;;5010051;28;20221;-87
2023/01/28 10:19:03;;;;;;;3.93;3.63;;;;;;;;;;5012235;28;20756;-88
2023/01/28 10:21:34;;;;;;;3.47;3.17;;;;;;;;;;5010247;28;20234;-88
2023/01/28 10:24:03;;;;;;;3.50;3.20;;;;;;;;;;5021844;28;20196;-89
2023/01/28 10:26:34;;;;;;;3.70;3.33;;;;;;;;;;5026478;28;20209;-89
2023/01/28 10:29:04;;;;;;;4.47;3.80;;;;;;;;;;5014905;27;20192;-85
2023/01/28 10:31:32;;;;;;;3.07;2.87;;;;;;;;;;5013392;28;20239;-88
2023/01/28 10:34:03;;;;;;;4.63;3.80;;;;;;;;;;5014463;28;20232;-92
2023/01/28 10:36:30;;;;;;;3.43;3.17;;;;;;;;;;5016647;28;20202;-92
2023/01/28 10:38:57;;;;;;;6.03;3.43;;;;;;;;;;5015124;28;20231;-90
2023/01/28 10:41:25;;;;;;;3.70;3.40;;;;;;;;;;5013572;28;20231;-91
2023/01/28 10:43:52;;;;;;;3.73;3.30;;;;;;;;;;5015200;28;20697;-91
2023/01/28 10:46:21;;;;;;;3.73;3.43;;;;;;;;;;5013842;28;20239;-90
2023/01/28 10:48:54;;;;;;;3.70;3.43;;;;;;;;;;5014617;28;20217;-92
2023/01/28 10:51:32;;;;;;;3.43;3.17;;;;;;;;;;5013637;28;20257;-92
2023/01/28 10:53:59;;;;;;;3.27;3.03;;;;;;;;;;5013778;28;20183;-90
2023/01/28 10:56:27;;;;;;;3.10;2.90;;;;;;;;;;5015403;28;20210;-91
2023/01/28 10:58:58;;;;;;;3.47;3.17;;;;;;;;;;5013914;28;20239;-92
2023/01/28 11:01:25;;;;;;;3.80;3.50;;;;;;;;;;5013618;28;20310;-92
2023/01/28 11:03:54;;;;;;;4.27;3.30;;;;;;;;;;5014462;28;20257;-91
2023/01/28 11:06:25;;;;;;;3.70;3.40;;;;;;;;;;5014239;28;20262;-91
2023/01/28 11:08:53;;;;;;;3.87;3.50;;;;;;;;;;5014084;28;20732;-92
2023/01/28 11:11:24;;;;;;;3.97;3.67;;;;;;;;;;5013715;28;20248;-90
2023/01/28 11:13:52;;;;;;;3.87;3.57;;;;;;;;;;5014710;28;20212;-92
2023/01/28 11:16:20;;;;;;;4.20;3.00;;;;;;;;;;5013805;28;20231;-92
2023/01/28 11:18:48;;;;;;;4.07;3.73;;;;;;;;;;5013911;28;20227;-92
2023/01/28 11:21:17;;;;;;;3.50;3.23;;;;;;;;;;5013148;28;20248;-92
2023/01/28 11:23:49;;;;;;;3.80;3.50;;;;;;;;;;5013369;28;20285;-91
2023/01/28 11:26:19;;;;;;;3.80;3.50;;;;;;;;;;5013208;28;20235;-92
2023/01/28 11:28:46;;;;;;;3.70;3.40;;;;;;;;;;5013755;28;20678;-92
2023/01/28 11:31:15;;;;;;;4.63;3.37;;;;;;;;;;5012721;28;20299;-92
2023/01/28 11:33:44;;;;;;;3.70;3.40;;;;;;;;;;5013475;28;20297;-92
2023/01/28 11:36:15;;;;;;;4.10;3.60;;;;;;;;;;5013378;28;20239;-92
2023/01/28 11:38:49;;;;;;;3.70;3.40;;;;;;;;;;5013921;28;20255;-92
2023/01/28 11:41:27;;;;;;;3.57;3.27;;;;;;;;;;5011994;28;20248;-92
2023/01/28 11:43:55;;;;;;;5.20;3.10;;;;;;;;;;5013822;28;20211;-92
2023/01/28 11:46:32;;;;;;;3.57;3.27;;;;;;;;;;5012915;28;20796;-92
2023/01/28 11:49:02;;;;;;;4.63;3.00;;;;;;;;;;5013443;28;20184;-91
2023/01/28 11:51:36;;;;;;;3.23;3.00;;;;;;;;;;5013219;28;20601;-92
2023/01/28 11:54:06;;;;;;;3.77;3.43;;;;;;;;;;5012755;28;20196;-91
2023/01/28 11:56:47;;;;;;;3.20;3.00;;;;;;;;;;5013595;28;20193;-91
2023/01/28 11:59:28;;;;;;;3.13;2.93;;;;;;;;;;5012778;28;20232;-91
2023/01/28 12:01:58;;;;;;;3.30;3.10;;;;;;;;;;5013275;28;20316;-91
2023/01/28 12:04:34;;;;;;;3.07;2.87;;;;;;;;;;5014043;28;20238;-92
2023/01/28 12:07:10;;;;;;;3.63;3.33;;;;;;;;;;5013102;28;20207;-92
2023/01/28 12:09:45;;;;;;;4.00;3.70;;;;;;;;;;5013605;28;20256;-92
2023/01/28 12:12:20;;;;;;;3.93;3.63;;;;;;;;;;5013528;28;20229;-91
2023/01/28 12:15:11;;;;;;;4.73;3.30;;;;;;;;;;5013395;28;20237;-90
2023/01/28 12:17:46;;;;;;;3.40;3.20;;;;;;;;;;5030874;28;20209;-91
2023/01/28 12:20:19;;;;;;;3.40;3.20;;;;;;;;;;5012131;28;20243;-91
2023/01/28 12:23:04;;;;;;;8.63;4.00;;;;;;;;;;5012063;28;20299;-91
2023/01/28 12:25:40;;;;;;;4.97;3.33;;;;;;;;;;5011010;28;20231;-91
2023/01/28 12:28:16;;;;;;;4.23;3.53;;;;;;;;;;5012344;28;20194;-91
2023/01/28 12:30:50;;;;;;;4.50;3.93;;;;;;;;;;5011515;28;20235;-91
2023/01/28 12:33:35;;;;;;;4.03;3.73;;;;;;;;;;5011257;28;20187;-90
2023/01/28 12:36:09;;;;;;;3.77;3.47;;;;;;;;;;5011085;28;20242;-90
2023/01/28 12:38:40;;;;;;;4.77;3.60;;;;;;;;;;5011711;28;20225;-90
2023/01/28 12:41:10;;;;;;;5.03;4.00;;;;;;;;;;5010882;28;20248;-91
2023/01/28 12:43:46;;;;;;;5.53;3.80;;;;;;;;;;5011438;28;20224;-90
2023/01/28 12:46:18;;;;;;;5.40;3.60;;;;;;;;;;5011411;28;20242;-90
2023/01/28 12:48:47;;;;;;;3.20;3.00;;;;;;;;;;5012286;28;20206;-90
2023/01/28 12:51:15;;;;;;;4.47;3.57;;;;;;;;;;5011903;28;20245;-90
2023/01/28 12:53:47;;;;;;;3.30;3.00;;;;;;;;;;5021599;28;20201;-90
2023/01/28 12:56:16;;;;;;;3.20;3.00;;;;;;;;;;5027123;28;20247;-90
2023/01/28 12:58:47;;;;;;;4.23;3.33;;;;;;;;;;5012577;28;20230;-90
2023/01/28 13:01:19;;;;;;;3.07;2.87;;;;;;;;;;5011110;28;20702;-90
2023/01/28 13:03:50;;;;;;;4.20;3.50;;;;;;;;;;5011737;28;20572;-91
2023/01/28 13:06:22;;;;;;;3.60;3.30;;;;;;;;;;5011707;28;20236;-90
2023/01/28 13:08:49;;;;;;;4.50;3.47;;;;;;;;;;5011706;28;20231;-91
2023/01/28 13:11:18;;;;;;;4.47;3.97;;;;;;;;;;5010736;28;20322;-91
2023/01/28 13:13:48;;;;;;;3.83;3.53;;;;;;;;;;5011697;28;20208;-91
2023/01/28 13:16:15;;;;;;;3.43;3.13;;;;;;;;;;5011512;28;20240;-91
2023/01/28 13:18:46;;;;;;;3.87;3.50;;;;;;;;;;5011920;28;20232;-91
2023/01/28 13:21:15;;;;;;;4.57;4.07;;;;;;;;;;5011106;28;20235;-90
2023/01/28 13:23:43;;;;;;;6.97;3.77;;;;;;;;;;5016070;28;20208;-90
2023/01/28 13:26:12;;;;;;;3.57;3.33;;;;;;;;;;5012345;28;20242;-90
2023/01/28 13:28:39;;;;;;;4.20;3.80;;;;;;;;;;5012049;28;20218;-90
2023/01/28 13:31:08;;;;;;;3.90;3.60;;;;;;;;;;5010796;28;20253;-91
2023/01/28 13:33:36;;;;;;;4.23;3.83;;;;;;;;;;5011165;28;20205;-90
2023/01/28 13:36:06;;;;;;;3.77;3.40;;;;;;;;;;5011213;28;20231;-91
2023/01/28 13:38:34;;;;;;;4.63;3.80;;;;;;;;;;5011660;28;20542;-91
2023/01/28 13:41:05;;;;;;;4.17;3.87;;;;;;;;;;5012009;28;20248;-90
2023/01/28 13:43:37;;;;;;;4.80;3.87;;;;;;;;;;5012325;28;20205;-90
2023/01/28 13:46:05;;;;;;;4.27;3.93;;;;;;;;;;5010631;28;20709;-91
2023/01/28 13:48:40;;;;;;;4.03;3.57;;;;;;;;;;5011443;28;20200;-91
2023/01/28 13:51:13;;;;;;;5.20;3.87;;;;;;;;;;5010646;28;20234;-91
2023/01/28 13:53:42;;;;;;;4.30;3.90;;;;;;;;;;5010783;28;20689;-90
2023/01/28 13:56:16;;;;;;;4.27;3.87;;;;;;;;;;5009863;28;20261;-91
2023/01/28 13:58:58;;;;;;;4.10;3.80;;;;;;;;;;5011689;28;20229;-90
2023/01/28 14:01:46;;;;;;;3.93;3.63;;;;;;;;;;5017766;28;20232;-90
2023/01/28 14:04:33;;;;;;;3.93;3.63;;;;;;;;;;5005431;27;20206;-90
2023/01/28 14:07:04;;;;;;;3.80;3.50;;;;;;;;;;5034424;28;20186;-90
2023/01/28 14:09:43;;;;;;;3.93;3.63;;;;;;;;;;5033399;27;20602;-90
2023/01/28 14:12:35;;;;;;;3.43;3.13;;;;;;;;;;5033809;28;20234;-90
2023/01/28 14:15:09;;;;;;;3.97;3.60;;;;;;;;;;5033440;27;20231;-90
2023/01/28 14:17:42;;;;;;;4.23;3.83;;;;;;;;;;5033525;28;20194;-90
2023/01/28 14:20:15;;;;;;;4.03;3.63;;;;;;;;;;5033156;28;20246;-90
2023/01/28 14:22:42;;;;;;;4.43;3.67;;;;;;;;;;5034012;28;20591;-91
2023/01/28 14:25:12;;;;;;;4.47;3.30;;;;;;;;;;5033046;27;20686;-91
2023/01/28 14:27:43;;;;;;;3.30;3.10;;;;;;;;;;5034029;28;20475;-91
2023/01/28 14:30:15;;;;;;;3.90;3.47;;;;;;;;;;5032817;27;20231;-91
2023/01/28 14:32:46;;;;;;;3.43;3.23;;;;;;;;;;5032886;28;20718;-85
2023/01/28 14:35:19;;;;;;;4.03;3.07;;;;;;;;;;5031534;27;20308;-85
2023/01/28 14:37:46;;;;;;;3.40;3.20;;;;;;;;;;5031889;28;20214;-85
2023/01/28 14:40:15;;;;;;;3.20;2.90;;;;;;;;;;5031308;27;20251;-85
2023/01/28 14:42:43;;;;;;;4.20;3.90;;;;;;;;;;5037663;28;20231;-85
2023/01/28 14:45:20;;;;;;;4.50;3.60;;;;;;;;;;5031299;27;20230;-85
2023/01/28 14:47:59;;;;;;;4.47;4.07;;;;;;;;;;5031811;28;20210;-86
2023/01/28 14:50:31;;;;;;;4.80;3.90;;;;;;;;;;5031369;27;20230;-85
2023/01/28 14:53:13;;;;;;;4.03;3.73;;;;;;;;;;5031344;28;20650;-85
2023/01/28 14:55:43;;;;;;;5.33;3.63;;;;;;;;;;5028894;27;20248;-85
2023/01/28 14:58:16;;;;;;;3.43;3.13;;;;;;;;;;5031580;28;20215;-86
2023/01/28 15:00:53;;;;;;;3.83;3.47;;;;;;;;;;5029701;27;20705;-85
2023/01/28 15:03:20;;;;;;;3.70;3.40;;;;;;;;;;5011698;28;20212;-85
2023/01/28 15:05:48;;;;;;;4.03;3.73;;;;;;;;;;5010945;28;20246;-85
2023/01/28 15:08:21;;;;;;;3.90;3.60;;;;;;;;;;5011636;28;20212;-85
2023/01/28 15:10:49;;;;;;;3.80;3.50;;;;;;;;;;5011018;28;20283;-85
2023/01/28 15:13:23;;;;;;;3.97;3.53;;;;;;;;;;5011144;28;20216;-85
2023/01/28 15:15:50;;;;;;;4.27;3.93;;;;;;;;;;5009596;28;20245;-85
2023/01/28 15:18:20;;;;;;;4.17;3.87;;;;;;;;;;5011100;28;20687;-85
2023/01/28 15:20:50;;;;;;;3.67;3.47;;;;;;;;;;5010732;28;20235;-85
2023/01/28 15:23:23;;;;;;;4.67;4.10;;;;;;;;;;5011404;28;20207;-85
2023/01/28 15:25:50;;;;;;;4.63;4.23;;;;;;;;;;5010891;28;20261;-85
2023/01/28 15:28:23;;;;;;;5.03;4.37;;;;;;;;;;5011505;28;20211;-85
2023/01/28 15:30:51;;;;;;;5.80;3.97;;;;;;;;;;5010437;28;20236;-85
2023/01/28 15:33:18;;;;;;;3.93;3.53;;;;;;;;;;5010800;28;20675;-85